createdAt,value
2022-11-01T00:02:10.481Z,16.88
2022-11-01T00:04:38.142Z,30.55
2022-11-01T00:07:05.301Z,18.13
2022-11-01T00:09:32.905Z,20.27
2022-11-01T00:11:59.786Z,23.17
2022-11-01T00:14:27.297Z,23.50
2022-11-01T00:16:53.906Z,22.83
2022-11-01T00:19:21.328Z,19.48
2022-11-01T00:21:47.963Z,22.70
2022-11-01T00:24:15.306Z,19.40
2022-11-01T00:26:42.059Z,15.80
2022-11-01T00:29:09.450Z,21.13
2022-11-01T00:31:36.206Z,20.25
2022-11-01T00:34:05.871Z,25.15
2022-11-01T00:36:36.095Z,22.35
2022-11-01T00:39:04.488Z,22.65
2022-11-01T00:41:31.219Z,24.63
2022-11-01T00:43:58.589Z,21.52
2022-11-01T00:46:25.259Z,18.60
2022-11-01T00:48:51.896Z,18.80
2022-11-01T00:51:19.174Z,20.25
2022-11-01T00:53:45.826Z,17.80
2022-11-01T00:56:13.128Z,21.23
2022-11-01T00:58:39.859Z,19.55
2022-11-01T01:01:07.408Z,21.73
2022-11-01T01:03:34.189Z,18.75
2022-11-01T01:06:01.685Z,20.52
2022-11-01T01:08:28.547Z,17.00
2022-11-01T01:10:55.742Z,12.25
2022-11-01T01:13:23.133Z,13.80
2022-11-01T01:15:50.116Z,16.33
2022-11-01T01:18:16.845Z,15.50
2022-11-01T01:20:44.576Z,18.75
2022-11-01T01:23:11.222Z,26.65
2022-11-01T01:25:42.832Z,17.08
2022-11-01T01:28:10.022Z,16.05
2022-11-01T01:30:41.406Z,15.25
2022-11-01T01:33:09.358Z,13.27
2022-11-01T01:35:38.705Z,20.63
2022-11-01T01:38:06.382Z,22.30
2022-11-01T01:40:35.062Z,13.85
2022-11-01T01:43:01.796Z,15.50
2022-11-01T01:45:40.365Z,17.55
2022-11-01T01:48:22.510Z,17.17
2022-11-01T01:50:55.714Z,15.13
2022-11-01T01:53:36.870Z,15.40
2022-11-01T02:24:07.944Z,11.43
2022-11-01T02:33:41.424Z,8.50
2022-11-01T02:36:43.602Z,8.82
2022-11-01T03:41:14.103Z,10.80
2022-11-01T03:43:41.643Z,9.18
2022-11-01T03:46:09.772Z,15.73
2022-11-01T03:48:40.356Z,9.77
2022-11-01T03:51:08.115Z,7.63
2022-11-01T03:53:34.741Z,9.95
2022-11-01T03:56:02.037Z,9.82
2022-11-01T03:58:41.419Z,9.13
2022-11-01T04:01:09.898Z,12.77
2022-11-01T04:03:36.661Z,14.20
2022-11-01T04:06:04.985Z,9.48
2022-11-01T04:08:31.929Z,9.43
2022-11-01T04:10:59.473Z,12.55
2022-11-01T04:13:26.465Z,9.23
2022-11-01T04:16:12.276Z,10.00
2022-11-01T04:18:57.704Z,14.70
2022-11-01T04:21:26.476Z,14.32
2022-11-01T04:23:53.122Z,11.07
2022-11-01T04:26:22.435Z,15.45
2022-11-01T04:28:58.666Z,13.40
2022-11-01T04:31:28.905Z,15.35
2022-11-01T04:33:56.806Z,13.65
2022-11-01T04:36:24.436Z,10.60
2022-11-01T04:38:52.874Z,12.55
2022-11-01T04:41:20.160Z,9.90
2022-11-01T04:43:47.473Z,7.50
2022-11-01T04:46:15.588Z,9.48
2022-11-01T04:48:42.503Z,10.40
2022-11-01T04:51:10.479Z,10.85
2022-11-01T04:53:37.551Z,9.20
2022-11-01T04:56:06.485Z,7.28
2022-11-01T04:58:34.324Z,6.55
2022-11-01T05:01:06.642Z,6.65
2022-11-01T05:03:34.087Z,9.80
2022-11-01T05:06:01.861Z,4.13
2022-11-01T05:08:28.728Z,10.00
2022-11-01T05:10:56.581Z,5.95
2022-11-01T05:13:23.517Z,8.75
2022-11-01T05:16:06.633Z,3.95
2022-11-01T05:18:40.674Z,8.02
2022-11-01T05:21:07.928Z,4.93
2022-11-01T05:23:34.496Z,7.00
2022-11-01T05:26:01.736Z,7.50
2022-11-01T05:28:28.336Z,5.22
2022-11-01T05:30:57.549Z,7.22
2022-11-01T05:33:24.169Z,7.70
2022-11-01T05:35:51.478Z,6.82
2022-11-01T05:38:18.113Z,7.53
2022-11-01T05:40:45.410Z,6.10
2022-11-01T05:43:12.197Z,4.07
2022-11-01T05:45:39.613Z,8.80
2022-11-01T05:48:06.410Z,10.23
2022-11-01T05:50:33.762Z,5.03
2022-11-01T05:53:10.173Z,4.53
2022-11-01T05:55:37.927Z,7.43
2022-11-01T05:58:05.270Z,10.95
2022-11-01T06:00:33.398Z,5.40
2022-11-01T06:03:00.995Z,6.03
2022-11-01T06:05:28.909Z,3.78
2022-11-01T06:07:55.966Z,7.45
2022-11-01T06:10:23.487Z,6.30
2022-11-01T06:12:50.116Z,8.27
2022-11-01T06:15:17.501Z,6.50
2022-11-01T06:17:44.163Z,7.00
2022-11-01T06:20:11.999Z,6.70
2022-11-01T06:22:39.189Z,8.05
2022-11-01T06:25:07.135Z,12.13
2022-11-01T06:27:33.759Z,9.13
2022-11-01T06:30:01.128Z,7.28
2022-11-01T06:32:27.854Z,5.82
2022-11-01T06:34:54.889Z,6.18
2022-11-01T06:37:21.669Z,6.65
2022-11-01T06:39:49.049Z,9.00
2022-11-01T06:42:15.709Z,7.07
2022-11-01T06:44:43.075Z,9.07
2022-11-01T06:47:11.597Z,11.77
2022-11-01T06:49:38.886Z,12.05
2022-11-01T06:52:05.510Z,9.00
2022-11-01T06:54:33.189Z,9.45
2022-11-01T06:56:59.801Z,8.13
2022-11-01T06:59:27.127Z,7.53
2022-11-01T07:01:54.829Z,8.88
2022-11-01T07:04:22.388Z,3.78
2022-11-01T07:06:49.315Z,12.13
2022-11-01T07:09:16.691Z,8.93
2022-11-01T07:11:43.301Z,7.50
2022-11-01T07:14:10.819Z,11.65
2022-11-01T07:16:38.854Z,10.40
2022-11-01T07:19:06.271Z,11.27
2022-11-01T07:21:32.902Z,9.13
2022-11-01T07:24:00.520Z,8.07
2022-11-01T07:26:27.188Z,7.95
2022-11-01T07:28:54.477Z,10.00
2022-11-01T07:31:21.225Z,5.13
2022-11-01T07:33:48.596Z,7.90
2022-11-01T07:36:15.224Z,7.90
2022-11-01T07:38:42.544Z,7.40
2022-11-01T07:41:09.219Z,9.57
2022-11-01T07:43:36.997Z,8.93
2022-11-01T07:46:05.519Z,4.88
2022-11-01T07:48:33.804Z,5.38
2022-11-01T07:51:02.597Z,8.82
2022-11-01T07:53:29.985Z,5.85
2022-11-01T07:55:56.704Z,13.15
2022-11-01T07:58:23.989Z,9.40
2022-11-01T08:00:50.679Z,11.65
2022-11-01T08:03:19.629Z,9.32
2022-11-01T08:05:48.136Z,12.55
2022-11-01T08:08:16.396Z,7.07
2022-11-01T08:10:43.396Z,11.88
2022-11-01T08:13:24.227Z,11.85
2022-11-01T08:15:52.559Z,18.75
2022-11-01T08:18:22.612Z,16.00
2022-11-01T08:20:50.279Z,16.38
2022-11-01T08:23:17.783Z,12.15
2022-11-01T08:25:45.037Z,13.07
2022-11-01T08:28:15.309Z,20.40
2022-11-01T08:30:43.689Z,17.90
2022-11-01T08:33:11.742Z,17.95
2022-11-01T08:35:39.231Z,15.18
2022-11-01T08:38:06.877Z,19.17
2022-11-01T08:40:34.138Z,17.58
2022-11-01T08:43:02.420Z,13.48
2022-11-01T08:45:29.535Z,16.98
2022-11-01T08:48:01.630Z,12.32
2022-11-01T08:50:28.886Z,25.00
2022-11-01T08:52:56.098Z,21.88
2022-11-01T08:55:23.031Z,14.52
2022-11-01T08:57:50.455Z,16.15
2022-11-01T09:00:17.975Z,13.95
2022-11-01T09:02:46.055Z,19.20
2022-11-01T09:05:12.841Z,12.63
2022-11-01T09:07:40.339Z,15.57
2022-11-01T09:10:07.656Z,11.65
2022-11-01T09:12:35.229Z,14.13
2022-11-01T09:15:03.071Z,20.80
2022-11-01T09:17:30.285Z,12.40
2022-11-01T09:19:57.607Z,20.05
2022-11-01T09:22:24.319Z,13.45
2022-11-01T09:24:51.777Z,16.40
2022-11-01T09:27:18.406Z,13.52
2022-11-01T09:29:48.095Z,14.63
2022-11-01T09:32:17.717Z,18.85
2022-11-01T09:34:45.497Z,10.80
2022-11-01T09:37:12.564Z,15.45
2022-11-01T09:39:39.566Z,20.83
2022-11-01T09:42:14.585Z,23.85
2022-11-01T09:44:45.307Z,9.82
2022-11-01T09:47:21.828Z,17.42
2022-11-01T09:49:55.580Z,16.42
2022-11-01T09:52:24.942Z,15.50
2022-11-01T09:54:52.354Z,15.05
2022-11-01T09:57:43.494Z,9.88
2022-11-01T10:00:20.140Z,14.77
2022-11-01T10:02:56.536Z,15.73
2022-11-01T10:05:48.686Z,13.15
2022-11-01T10:08:46.994Z,16.45
2022-11-01T10:11:37.007Z,17.45
2022-11-01T10:14:30.995Z,21.23
2022-11-01T10:17:03.743Z,23.17
2022-11-01T10:19:34.079Z,12.20
2022-11-01T10:22:07.240Z,13.35
2022-11-01T10:24:48.314Z,15.57
2022-11-01T10:27:25.855Z,16.92
2022-11-01T10:30:02.393Z,16.70
2022-11-01T10:32:50.776Z,14.38
2022-11-01T10:35:20.244Z,15.32
2022-11-01T10:38:11.299Z,14.15
2022-11-01T10:40:56.751Z,16.80
2022-11-01T10:43:25.984Z,18.88
2022-11-01T10:45:57.596Z,14.73
2022-11-01T10:48:33.808Z,13.68
2022-11-01T10:51:03.591Z,16.27
2022-11-01T10:53:36.672Z,17.15
2022-11-01T10:56:09.061Z,15.65
2022-11-01T10:58:51.768Z,10.68
2022-11-01T11:01:25.231Z,21.50
2022-11-01T11:03:54.545Z,21.63
2022-11-01T11:06:21.276Z,13.70
2022-11-01T11:08:51.840Z,18.88
2022-11-01T11:11:35.792Z,18.17
2022-11-01T11:14:07.350Z,20.95
2022-11-01T11:16:47.802Z,11.27
2022-11-01T11:19:32.446Z,21.63
2022-11-01T11:22:00.765Z,19.65
2022-11-01T11:24:32.902Z,13.55
2022-11-01T11:27:02.262Z,21.80
2022-11-01T11:29:40.461Z,27.23
2022-11-01T11:32:15.979Z,18.77
2022-11-01T11:34:43.686Z,22.58
2022-11-01T11:37:20.195Z,14.52
2022-11-01T11:40:12.862Z,23.45
2022-11-01T11:42:39.886Z,20.23
2022-11-01T11:45:20.824Z,15.93
2022-11-01T11:47:48.291Z,16.23
2022-11-01T11:50:20.847Z,18.65
2022-11-01T11:55:39.786Z,21.50
2022-11-01T11:58:19.604Z,19.98
2022-11-01T12:00:51.561Z,18.13
2022-11-01T12:03:20.062Z,27.25
2022-11-01T12:05:56.451Z,19.08
2022-11-01T12:08:45.792Z,16.55
2022-11-01T12:11:12.815Z,15.23
2022-11-01T12:13:45.964Z,12.43
2022-11-01T12:19:00.995Z,18.55
2022-11-01T12:21:40.283Z,22.05
2022-11-01T12:24:28.500Z,20.98
2022-11-01T12:27:01.933Z,18.15
2022-11-01T12:29:39.174Z,14.50
2022-11-01T12:32:32.137Z,20.33
2022-11-01T12:35:03.848Z,20.63
2022-11-01T12:37:39.502Z,19.63
2022-11-01T12:40:21.276Z,17.15
2022-11-01T12:42:51.871Z,13.10
2022-11-01T12:45:28.678Z,18.35
2022-11-01T12:48:12.483Z,17.45
2022-11-01T12:51:00.309Z,14.48
2022-11-01T12:53:42.438Z,16.10
2022-11-01T12:56:09.254Z,16.08
2022-11-01T12:58:36.672Z,15.65
2022-11-01T13:01:24.019Z,12.02
2022-11-01T13:04:13.142Z,16.20
2022-11-01T13:07:01.362Z,17.48
2022-11-01T13:09:47.170Z,15.40
2022-11-01T13:12:42.005Z,15.02
2022-11-01T13:15:31.451Z,9.15
2022-11-01T13:18:41.653Z,21.70
2022-11-01T13:21:15.162Z,13.98
2022-11-01T13:23:53.341Z,17.00
2022-11-01T13:26:49.777Z,11.00
2022-11-01T13:29:24.225Z,17.60
2022-11-01T13:32:02.491Z,11.38
2022-11-01T13:34:51.352Z,14.95
2022-11-01T13:37:32.636Z,15.73
2022-11-01T13:40:20.980Z,15.73
2022-11-01T13:42:55.104Z,14.55
2022-11-01T13:45:45.939Z,14.88
2022-11-01T13:48:25.415Z,13.48
2022-11-01T13:51:29.456Z,14.55
2022-11-01T13:54:40.757Z,20.13
2022-11-01T13:57:09.089Z,8.20
2022-11-01T13:59:39.857Z,14.98
2022-11-01T14:02:25.433Z,10.55
2022-11-01T14:04:59.248Z,13.82
2022-11-01T14:07:46.138Z,14.85
2022-11-01T14:10:20.077Z,14.30
2022-11-01T14:13:10.988Z,20.73
2022-11-01T14:16:01.434Z,18.15
2022-11-01T14:18:28.750Z,21.95
2022-11-01T14:20:56.541Z,14.88
2022-11-01T14:23:29.515Z,15.32
2022-11-01T14:26:18.042Z,17.75
2022-11-01T14:28:46.986Z,17.00
2022-11-01T14:31:14.983Z,18.45
2022-11-01T14:33:43.219Z,15.73
2022-11-01T14:36:12.849Z,12.27
2022-11-01T14:39:01.174Z,18.60
2022-11-01T14:41:30.238Z,10.88
2022-11-01T14:44:03.019Z,21.80
2022-11-01T14:46:37.009Z,7.90
2022-11-01T14:49:43.205Z,14.50
2022-11-01T14:52:21.734Z,15.70
2022-11-01T14:54:57.753Z,14.25
2022-11-01T14:57:29.878Z,12.60
2022-11-01T14:59:58.676Z,16.02
2022-11-01T15:02:27.939Z,12.23
2022-11-01T15:05:00.883Z,14.30
2022-11-01T15:07:31.392Z,16.80
2022-11-01T15:10:11.327Z,15.05
2022-11-01T15:12:58.800Z,16.90
2022-11-01T15:15:38.308Z,17.42
2022-11-01T15:18:14.392Z,15.55
2022-11-01T15:20:47.714Z,12.98
2022-11-01T15:25:52.523Z,18.50
2022-11-01T15:28:36.581Z,18.73
2022-11-01T15:31:06.224Z,16.38
2022-11-01T15:33:34.961Z,18.52
2022-11-01T15:36:04.434Z,15.95
2022-11-01T15:38:36.314Z,16.55
2022-11-01T15:41:25.166Z,16.15
2022-11-01T15:43:54.419Z,19.42
2022-11-01T15:46:23.986Z,13.63
2022-11-01T15:48:52.943Z,12.18
2022-11-01T15:51:26.128Z,15.15
2022-11-01T15:54:04.100Z,17.42
2022-11-01T15:56:40.764Z,13.93
2022-11-01T15:59:19.763Z,13.50
2022-11-01T16:01:47.599Z,17.30
2022-11-01T16:04:19.920Z,11.60
2022-11-01T16:06:57.195Z,8.68
2022-11-01T16:09:39.848Z,14.35
2022-11-01T16:12:19.995Z,13.47
2022-11-01T16:14:54.176Z,17.23
2022-11-01T16:17:25.002Z,14.85
2022-11-01T16:19:53.001Z,15.93
2022-11-01T16:22:45.357Z,15.52
2022-11-01T16:25:22.023Z,9.35
2022-11-01T16:27:56.113Z,18.50
2022-11-01T16:30:38.268Z,14.75
2022-11-01T16:33:30.147Z,14.57
2022-11-01T16:35:58.877Z,14.07
2022-11-01T16:38:37.592Z,16.00
2022-11-01T16:41:15.621Z,16.48
2022-11-01T16:43:43.360Z,16.52
2022-11-01T16:46:10.091Z,15.20
2022-11-01T16:48:55.604Z,18.20
2022-11-01T16:51:26.589Z,11.18
2022-11-01T16:53:55.400Z,13.85
2022-11-01T16:56:36.064Z,17.63
2022-11-01T16:59:38.396Z,8.25
2022-11-01T17:02:27.915Z,12.48
2022-11-01T17:05:04.464Z,20.13
2022-11-01T17:07:31.921Z,17.90
2022-11-01T17:09:59.363Z,13.52
2022-11-01T17:12:25.953Z,16.63
2022-11-01T17:14:53.876Z,22.50
2022-11-01T17:17:24.397Z,15.13
2022-11-01T17:20:00.152Z,14.00
2022-11-01T17:22:34.097Z,17.65
2022-11-01T17:25:02.642Z,20.60
2022-11-01T17:27:29.638Z,16.25
2022-11-01T17:29:56.870Z,15.25
2022-11-01T17:32:23.512Z,21.38
2022-11-01T17:34:50.967Z,20.58
2022-11-01T17:37:17.711Z,20.90
2022-11-01T17:39:45.173Z,15.32
2022-11-01T17:42:11.835Z,14.38
2022-11-01T17:44:39.117Z,17.08
2022-11-01T17:47:05.755Z,17.77
2022-11-01T17:49:33.044Z,18.52
2022-11-01T17:52:00.908Z,14.93
2022-11-01T17:54:28.173Z,24.88
2022-11-01T17:56:54.828Z,16.45
2022-11-01T17:59:22.301Z,20.73
2022-11-01T18:01:49.358Z,13.82
2022-11-01T18:04:16.878Z,31.88
2022-11-01T18:06:43.946Z,14.45
2022-11-01T18:09:25.757Z,17.10
2022-11-01T18:12:14.632Z,22.95
2022-11-01T18:15:17.064Z,21.52
2022-11-01T18:17:55.278Z,20.80
2022-11-01T18:21:00.953Z,12.45
2022-11-01T18:23:27.737Z,20.02
2022-11-01T18:25:54.860Z,17.70
2022-11-01T18:28:27.578Z,17.63
2022-11-01T18:33:34.896Z,18.83
2022-11-01T18:36:23.703Z,19.92
2022-11-01T18:39:21.977Z,16.67
2022-11-01T18:41:50.382Z,16.85
2022-11-01T18:44:17.878Z,18.75
2022-11-01T18:46:53.739Z,17.35
2022-11-01T18:49:25.602Z,16.13
2022-11-01T18:51:53.518Z,21.80
2022-11-01T18:54:30.619Z,15.18
2022-11-01T18:57:10.552Z,18.33
2022-11-01T18:59:39.401Z,22.40
2022-11-01T19:02:18.343Z,15.50
2022-11-01T19:04:46.885Z,19.73
2022-11-01T19:07:22.667Z,19.58
2022-11-01T19:09:54.524Z,20.77
2022-11-01T19:12:40.308Z,17.83
2022-11-01T19:15:11.904Z,18.67
2022-11-01T19:17:41.332Z,20.90
2022-11-01T19:20:25.101Z,17.98
2022-11-01T19:22:58.843Z,25.08
2022-11-01T19:25:31.832Z,22.77
2022-11-01T19:30:29.995Z,22.27
2022-11-01T19:33:06.653Z,17.35
2022-11-01T19:35:33.340Z,17.05
2022-11-01T19:38:00.771Z,21.30
2022-11-01T19:40:35.839Z,25.13
2022-11-01T19:43:26.428Z,18.95
2022-11-01T19:45:55.960Z,16.80
2022-11-01T19:48:26.963Z,17.10
2022-11-01T19:50:54.689Z,20.63
2022-11-01T19:53:31.369Z,18.42
2022-11-01T19:56:05.614Z,21.25
2022-11-01T19:58:49.120Z,22.80
2022-11-01T20:01:25.428Z,22.30
2022-11-01T20:03:57.159Z,19.48
2022-11-01T20:06:41.817Z,19.23
2022-11-01T20:09:28.757Z,18.63
2022-11-01T20:11:56.054Z,19.80
2022-11-01T20:14:22.837Z,14.15
2022-11-01T20:16:49.771Z,16.90
2022-11-01T20:19:17.855Z,18.98
2022-11-01T20:21:45.061Z,20.52
2022-11-01T20:24:12.338Z,16.02
2022-11-01T20:26:39.611Z,16.85
2022-11-01T20:29:06.722Z,20.83
2022-11-01T20:31:33.429Z,19.33
2022-11-01T20:34:00.196Z,21.85
2022-11-01T20:36:28.160Z,18.90
2022-11-01T20:38:54.972Z,14.35
2022-11-01T20:41:22.902Z,16.52
2022-11-01T20:43:49.598Z,18.23
2022-11-01T20:46:16.909Z,26.83
2022-11-01T20:48:45.067Z,19.40
2022-11-01T20:51:13.290Z,21.85
2022-11-01T20:53:41.049Z,18.10
2022-11-01T20:56:09.192Z,19.50
2022-11-01T20:58:40.133Z,21.02
2022-11-01T21:01:16.942Z,11.85
2022-11-01T21:03:44.229Z,25.08
2022-11-01T21:06:17.131Z,19.13
2022-11-01T21:08:47.072Z,15.88
2022-11-01T21:11:24.280Z,19.67
2022-11-01T21:13:52.556Z,19.00
2022-11-01T21:16:28.052Z,21.50
2022-11-01T21:19:00.664Z,17.10
2022-11-01T21:21:45.297Z,19.95
2022-11-01T21:24:27.569Z,15.52
2022-11-01T21:27:13.645Z,23.08
2022-11-01T21:29:48.649Z,20.83
2022-11-01T21:32:23.501Z,17.15
2022-11-01T21:34:51.618Z,13.02
2022-11-01T21:37:21.497Z,18.77
2022-11-01T21:40:00.165Z,14.85
2022-11-01T21:42:35.482Z,24.13
2022-11-01T21:45:35.373Z,22.43
2022-11-01T21:48:21.549Z,19.17
2022-11-01T21:50:48.857Z,16.38
2022-11-01T21:53:15.526Z,20.20
2022-11-01T21:55:42.810Z,22.02
2022-11-01T21:58:09.414Z,16.55
2022-11-01T22:00:36.669Z,22.48
2022-11-01T22:03:03.593Z,23.73
2022-11-01T22:05:31.140Z,21.35
2022-11-01T22:07:57.783Z,19.05
2022-11-01T22:10:25.171Z,24.13
2022-11-01T22:12:51.761Z,22.15
2022-11-01T22:15:19.215Z,16.08
2022-11-01T22:17:45.919Z,16.25
2022-11-01T22:20:13.275Z,18.38
2022-11-01T22:22:39.859Z,19.17
2022-11-01T22:25:07.311Z,19.83
2022-11-01T22:27:33.888Z,20.98
2022-11-01T22:30:01.115Z,26.58
2022-11-01T22:32:27.703Z,24.55
2022-11-01T22:34:55.080Z,23.98
2022-11-01T22:37:22.045Z,24.45
2022-11-01T22:39:52.942Z,19.98
2022-11-01T22:42:20.556Z,20.30
2022-11-01T22:44:50.137Z,23.85
2022-11-01T22:47:27.885Z,16.90
2022-11-01T22:49:58.857Z,20.60
2022-11-01T22:52:36.710Z,20.80
2022-11-01T22:55:27.588Z,26.95
2022-11-01T22:58:14.725Z,16.88
2022-11-01T23:00:45.802Z,18.55
2022-11-01T23:03:28.572Z,21.00
2022-11-01T23:05:59.828Z,17.25
2022-11-01T23:08:27.442Z,12.50
2022-11-01T23:10:55.092Z,27.58
2022-11-01T23:13:43.285Z,23.45
2022-11-01T23:16:24.593Z,19.25
2022-11-01T23:18:52.947Z,14.20
2022-11-01T23:21:22.284Z,19.70
2022-11-01T23:23:49.226Z,20.27
2022-11-01T23:26:18.774Z,25.30
2022-11-01T23:28:52.577Z,24.48
2022-11-01T23:31:20.798Z,24.13
2022-11-01T23:33:48.866Z,14.48
2022-11-01T23:36:27.571Z,26.27
2022-11-01T23:38:55.379Z,19.17
2022-11-01T23:41:34.107Z,21.40
2022-11-01T23:44:20.974Z,23.95
2022-11-01T23:46:48.952Z,24.23
2022-11-01T23:49:22.175Z,16.10
2022-11-01T23:51:50.360Z,20.42
2022-11-01T23:54:24.401Z,18.95
2022-11-01T23:56:51.879Z,19.60
2022-11-01T23:59:18.564Z,18.48
